sensor_id;sensor_type;location;lat;lon;timestamp;P1;durP1;ratioP1;P2;durP2;ratioP2
60478;SDS011;46321;48.398;11.754;2022-11-20T00:01:12;9.85;;;4.30;;
60478;SDS011;46321;48.398;11.754;2022-11-20T00:03:39;5.25;;;3.50;;
60478;SDS011;46321;48.398;11.754;2022-11-20T00:06:06;5.25;;;3.28;;
60478;SDS011;46321;48.398;11.754;2022-11-20T00:08:33;5.03;;;3.00;;
60478;SDS011;46321;48.398;11.754;2022-11-20T00:11:03;4.70;;;3.05;;
60478;SDS011;46321;48.398;11.754;2022-11-20T00:13:33;5.75;;;3.35;;
60478;SDS011;46321;48.398;11.754;2022-11-20T00:15:59;4.93;;;3.22;;
60478;SDS011;46321;48.398;11.754;2022-11-20T00:18:26;5.00;;;3.00;;
60478;SDS011;46321;48.398;11.754;2022-11-20T00:20:51;3.70;;;2.55;;
60478;SDS011;46321;48.398;11.754;2022-11-20T00:23:17;6.10;;;3.30;;
60478;SDS011;46321;48.398;11.754;2022-11-20T00:25:42;4.63;;;3.08;;
60478;SDS011;46321;48.398;11.754;2022-11-20T00:28:07;4.35;;;2.50;;
60478;SDS011;46321;48.398;11.754;2022-11-20T00:30:33;3.95;;;2.83;;
60478;SDS011;46321;48.398;11.754;2022-11-20T00:32:58;4.10;;;2.58;;
60478;SDS011;46321;48.398;11.754;2022-11-20T00:35:23;4.80;;;2.80;;
60478;SDS011;46321;48.398;11.754;2022-11-20T00:37:48;4.38;;;2.70;;
60478;SDS011;46321;48.398;11.754;2022-11-20T00:40:14;4.38;;;2.85;;
60478;SDS011;46321;48.398;11.754;2022-11-20T00:42:39;4.75;;;2.88;;
60478;SDS011;46321;48.398;11.754;2022-11-20T00:45:05;6.50;;;3.08;;
60478;SDS011;46321;48.398;11.754;2022-11-20T00:47:30;5.38;;;3.08;;
60478;SDS011;46321;48.398;11.754;2022-11-20T00:49:55;5.03;;;3.15;;
60478;SDS011;46321;48.398;11.754;2022-11-20T00:52:21;6.93;;;3.40;;
60478;SDS011;46321;48.398;11.754;2022-11-20T00:54:46;7.70;;;3.85;;
60478;SDS011;46321;48.398;11.754;2022-11-20T00:57:11;6.60;;;3.17;;
60478;SDS011;46321;48.398;11.754;2022-11-20T00:59:37;9.40;;;3.90;;
60478;SDS011;46321;48.398;11.754;2022-11-20T01:02:02;9.23;;;3.90;;
60478;SDS011;46321;48.398;11.754;2022-11-20T01:04:27;7.65;;;3.42;;
60478;SDS011;46321;48.398;11.754;2022-11-20T01:06:52;7.25;;;3.85;;
60478;SDS011;46321;48.398;11.754;2022-11-20T01:09:18;6.55;;;3.83;;
60478;SDS011;46321;48.398;11.754;2022-11-20T01:11:43;6.95;;;4.00;;
60478;SDS011;46321;48.398;11.754;2022-11-20T01:14:10;7.00;;;3.80;;
60478;SDS011;46321;48.398;11.754;2022-11-20T01:16:42;7.07;;;4.43;;
60478;SDS011;46321;48.398;11.754;2022-11-20T01:19:11;6.25;;;3.80;;
60478;SDS011;46321;48.398;11.754;2022-11-20T01:25:06;6.65;;;3.88;;
60478;SDS011;46321;48.398;11.754;2022-11-20T01:31:19;8.00;;;4.18;;
60478;SDS011;46321;48.398;11.754;2022-11-20T01:34:26;6.10;;;3.60;;
60478;SDS011;46321;48.398;11.754;2022-11-20T01:36:53;8.10;;;4.28;;
60478;SDS011;46321;48.398;11.754;2022-11-20T01:39:27;6.90;;;3.80;;
60478;SDS011;46321;48.398;11.754;2022-11-20T01:41:54;7.32;;;3.90;;
60478;SDS011;46321;48.398;11.754;2022-11-20T01:44:51;6.63;;;3.70;;
60478;SDS011;46321;48.398;11.754;2022-11-20T01:50:06;8.07;;;4.07;;
60478;SDS011;46321;48.398;11.754;2022-11-20T01:53:03;6.35;;;3.80;;
60478;SDS011;46321;48.398;11.754;2022-11-20T01:55:33;7.53;;;4.22;;
60478;SDS011;46321;48.398;11.754;2022-11-20T01:58:01;7.97;;;4.15;;
60478;SDS011;46321;48.398;11.754;2022-11-20T02:00:28;6.00;;;3.42;;
60478;SDS011;46321;48.398;11.754;2022-11-20T02:02:58;7.40;;;4.25;;
60478;SDS011;46321;48.398;11.754;2022-11-20T02:05:49;7.80;;;3.63;;
60478;SDS011;46321;48.398;11.754;2022-11-20T02:08:26;6.00;;;3.40;;
60478;SDS011;46321;48.398;11.754;2022-11-20T02:10:53;8.02;;;3.83;;
60478;SDS011;46321;48.398;11.754;2022-11-20T02:13:19;7.57;;;3.55;;
60478;SDS011;46321;48.398;11.754;2022-11-20T02:16:03;5.38;;;3.60;;
60478;SDS011;46321;48.398;11.754;2022-11-20T02:18:35;6.05;;;3.60;;
60478;SDS011;46321;48.398;11.754;2022-11-20T02:21:06;5.72;;;3.70;;
60478;SDS011;46321;48.398;11.754;2022-11-20T02:24:04;6.53;;;3.75;;
60478;SDS011;46321;48.398;11.754;2022-11-20T02:29:15;8.95;;;3.95;;
60478;SDS011;46321;48.398;11.754;2022-11-20T02:31:50;6.25;;;3.58;;
60478;SDS011;46321;48.398;11.754;2022-11-20T02:34:21;6.53;;;3.70;;
60478;SDS011;46321;48.398;11.754;2022-11-20T02:36:50;7.00;;;3.53;;
60478;SDS011;46321;48.398;11.754;2022-11-20T02:39:17;6.53;;;3.80;;
60478;SDS011;46321;48.398;11.754;2022-11-20T02:41:48;6.15;;;3.55;;
60478;SDS011;46321;48.398;11.754;2022-11-20T02:44:23;6.63;;;3.42;;
60478;SDS011;46321;48.398;11.754;2022-11-20T02:46:56;6.30;;;3.42;;
60478;SDS011;46321;48.398;11.754;2022-11-20T02:49:28;7.30;;;3.40;;
60478;SDS011;46321;48.398;11.754;2022-11-20T02:51:54;5.97;;;3.83;;
60478;SDS011;46321;48.398;11.754;2022-11-20T02:56:57;6.10;;;3.63;;
60478;SDS011;46321;48.398;11.754;2022-11-20T02:59:25;6.53;;;3.92;;
60478;SDS011;46321;48.398;11.754;2022-11-20T03:01:54;6.55;;;3.40;;
60478;SDS011;46321;48.398;11.754;2022-11-20T03:04:49;7.78;;;3.75;;
60478;SDS011;46321;48.398;11.754;2022-11-20T03:07:19;6.18;;;3.55;;
60478;SDS011;46321;48.398;11.754;2022-11-20T03:13:08;6.50;;;3.80;;
60478;SDS011;46321;48.398;11.754;2022-11-20T03:15:33;10.20;;;3.55;;
60478;SDS011;46321;48.398;11.754;2022-11-20T03:18:00;6.07;;;3.28;;
60478;SDS011;46321;48.398;11.754;2022-11-20T03:20:25;6.22;;;3.63;;
60478;SDS011;46321;48.398;11.754;2022-11-20T03:22:51;7.45;;;3.38;;
60478;SDS011;46321;48.398;11.754;2022-11-20T03:25:19;5.93;;;3.70;;
60478;SDS011;46321;48.398;11.754;2022-11-20T03:27:44;6.55;;;3.40;;
60478;SDS011;46321;48.398;11.754;2022-11-20T03:30:09;6.90;;;3.45;;
60478;SDS011;46321;48.398;11.754;2022-11-20T03:32:35;7.13;;;3.70;;
60478;SDS011;46321;48.398;11.754;2022-11-20T03:35:00;6.15;;;3.78;;
60478;SDS011;46321;48.398;11.754;2022-11-20T03:37:25;5.38;;;3.05;;
60478;SDS011;46321;48.398;11.754;2022-11-20T03:39:50;6.15;;;3.40;;
60478;SDS011;46321;48.398;11.754;2022-11-20T03:42:16;5.35;;;3.40;;
60478;SDS011;46321;48.398;11.754;2022-11-20T03:44:59;6.57;;;4.30;;
60478;SDS011;46321;48.398;11.754;2022-11-20T03:47:25;6.47;;;3.80;;
60478;SDS011;46321;48.398;11.754;2022-11-20T03:49:50;7.50;;;4.00;;
60478;SDS011;46321;48.398;11.754;2022-11-20T03:52:15;8.07;;;4.20;;
60478;SDS011;46321;48.398;11.754;2022-11-20T03:54:40;6.32;;;3.50;;
60478;SDS011;46321;48.398;11.754;2022-11-20T03:57:06;6.80;;;3.60;;
60478;SDS011;46321;48.398;11.754;2022-11-20T03:59:31;7.10;;;3.90;;
60478;SDS011;46321;48.398;11.754;2022-11-20T04:01:56;8.75;;;4.00;;
60478;SDS011;46321;48.398;11.754;2022-11-20T04:04:21;5.65;;;3.47;;
60478;SDS011;46321;48.398;11.754;2022-11-20T04:06:47;5.80;;;3.85;;
60478;SDS011;46321;48.398;11.754;2022-11-20T04:09:12;11.10;;;3.70;;
60478;SDS011;46321;48.398;11.754;2022-11-20T04:11:39;7.47;;;3.75;;
60478;SDS011;46321;48.398;11.754;2022-11-20T04:14:06;8.00;;;4.10;;
60478;SDS011;46321;48.398;11.754;2022-11-20T04:16:36;7.00;;;4.05;;
60478;SDS011;46321;48.398;11.754;2022-11-20T04:19:03;7.78;;;4.13;;
60478;SDS011;46321;48.398;11.754;2022-11-20T04:21:30;7.00;;;3.58;;
60478;SDS011;46321;48.398;11.754;2022-11-20T04:23:56;6.35;;;3.60;;
60478;SDS011;46321;48.398;11.754;2022-11-20T04:26:22;5.93;;;3.67;;
60478;SDS011;46321;48.398;11.754;2022-11-20T04:28:49;5.82;;;3.55;;
60478;SDS011;46321;48.398;11.754;2022-11-20T04:31:19;5.82;;;3.53;;
60478;SDS011;46321;48.398;11.754;2022-11-20T04:33:46;7.25;;;3.53;;
60478;SDS011;46321;48.398;11.754;2022-11-20T04:36:16;7.93;;;3.80;;
60478;SDS011;46321;48.398;11.754;2022-11-20T04:38:42;6.57;;;3.53;;
60478;SDS011;46321;48.398;11.754;2022-11-20T04:41:14;5.57;;;3.67;;
60478;SDS011;46321;48.398;11.754;2022-11-20T04:43:41;6.15;;;3.70;;
60478;SDS011;46321;48.398;11.754;2022-11-20T04:46:13;6.63;;;3.42;;
60478;SDS011;46321;48.398;11.754;2022-11-20T04:48:38;7.22;;;4.00;;
60478;SDS011;46321;48.398;11.754;2022-11-20T04:51:03;6.38;;;3.75;;
60478;SDS011;46321;48.398;11.754;2022-11-20T04:53:29;8.18;;;3.38;;
60478;SDS011;46321;48.398;11.754;2022-11-20T04:55:58;6.93;;;3.90;;
60478;SDS011;46321;48.398;11.754;2022-11-20T04:58:28;6.95;;;3.90;;
60478;SDS011;46321;48.398;11.754;2022-11-20T05:01:00;7.10;;;3.45;;
60478;SDS011;46321;48.398;11.754;2022-11-20T05:03:27;7.20;;;3.60;;
60478;SDS011;46321;48.398;11.754;2022-11-20T05:05:52;6.75;;;3.50;;
60478;SDS011;46321;48.398;11.754;2022-11-20T05:08:17;5.28;;;3.13;;
60478;SDS011;46321;48.398;11.754;2022-11-20T05:10:42;4.95;;;3.30;;
60478;SDS011;46321;48.398;11.754;2022-11-20T05:13:08;5.65;;;3.08;;
60478;SDS011;46321;48.398;11.754;2022-11-20T05:15:33;6.93;;;3.38;;
60478;SDS011;46321;48.398;11.754;2022-11-20T05:17:58;4.80;;;3.20;;
60478;SDS011;46321;48.398;11.754;2022-11-20T05:20:23;6.10;;;3.47;;
60478;SDS011;46321;48.398;11.754;2022-11-20T05:22:49;5.03;;;3.13;;
60478;SDS011;46321;48.398;11.754;2022-11-20T05:25:14;4.88;;;3.20;;
60478;SDS011;46321;48.398;11.754;2022-11-20T05:27:39;5.95;;;3.58;;
60478;SDS011;46321;48.398;11.754;2022-11-20T05:30:05;5.60;;;3.20;;
60478;SDS011;46321;48.398;11.754;2022-11-20T05:32:31;6.15;;;3.88;;
60478;SDS011;46321;48.398;11.754;2022-11-20T05:34:56;7.22;;;3.10;;
60478;SDS011;46321;48.398;11.754;2022-11-20T05:37:21;5.68;;;3.00;;
60478;SDS011;46321;48.398;11.754;2022-11-20T05:39:47;6.45;;;3.15;;
60478;SDS011;46321;48.398;11.754;2022-11-20T05:42:12;5.30;;;3.00;;
60478;SDS011;46321;48.398;11.754;2022-11-20T05:44:59;6.53;;;3.13;;
60478;SDS011;46321;48.398;11.754;2022-11-20T05:47:27;7.47;;;2.97;;
60478;SDS011;46321;48.398;11.754;2022-11-20T05:49:53;5.20;;;2.72;;
60478;SDS011;46321;48.398;11.754;2022-11-20T05:52:19;5.93;;;3.17;;
60478;SDS011;46321;48.398;11.754;2022-11-20T05:54:44;5.43;;;3.15;;
60478;SDS011;46321;48.398;11.754;2022-11-20T05:57:09;5.15;;;3.17;;
60478;SDS011;46321;48.398;11.754;2022-11-20T05:59:35;5.05;;;3.30;;
60478;SDS011;46321;48.398;11.754;2022-11-20T06:02:00;5.50;;;3.13;;
60478;SDS011;46321;48.398;11.754;2022-11-20T06:04:25;7.60;;;3.03;;
60478;SDS011;46321;48.398;11.754;2022-11-20T06:06:51;6.05;;;3.50;;
60478;SDS011;46321;48.398;11.754;2022-11-20T06:09:16;5.72;;;3.15;;
60478;SDS011;46321;48.398;11.754;2022-11-20T06:11:41;5.47;;;3.20;;
60478;SDS011;46321;48.398;11.754;2022-11-20T06:14:06;5.13;;;3.28;;
60478;SDS011;46321;48.398;11.754;2022-11-20T06:16:31;5.78;;;3.20;;
60478;SDS011;46321;48.398;11.754;2022-11-20T06:18:57;6.40;;;3.70;;
60478;SDS011;46321;48.398;11.754;2022-11-20T06:21:22;6.82;;;3.50;;
60478;SDS011;46321;48.398;11.754;2022-11-20T06:23:48;5.38;;;3.35;;
60478;SDS011;46321;48.398;11.754;2022-11-20T06:26:16;4.78;;;3.10;;
60478;SDS011;46321;48.398;11.754;2022-11-20T06:28:43;7.30;;;3.55;;
60478;SDS011;46321;48.398;11.754;2022-11-20T06:31:10;4.88;;;3.20;;
60478;SDS011;46321;48.398;11.754;2022-11-20T06:33:36;6.63;;;3.60;;
60478;SDS011;46321;48.398;11.754;2022-11-20T06:36:02;6.80;;;3.55;;
60478;SDS011;46321;48.398;11.754;2022-11-20T06:38:28;5.60;;;3.38;;
60478;SDS011;46321;48.398;11.754;2022-11-20T06:40:53;5.82;;;3.58;;
60478;SDS011;46321;48.398;11.754;2022-11-20T06:43:20;5.80;;;3.72;;
60478;SDS011;46321;48.398;11.754;2022-11-20T06:45:51;5.20;;;3.35;;
60478;SDS011;46321;48.398;11.754;2022-11-20T06:48:21;6.65;;;3.53;;
60478;SDS011;46321;48.398;11.754;2022-11-20T06:50:47;6.18;;;3.45;;
60478;SDS011;46321;48.398;11.754;2022-11-20T06:53:12;5.93;;;3.45;;
60478;SDS011;46321;48.398;11.754;2022-11-20T06:55:41;10.93;;;6.40;;
60478;SDS011;46321;48.398;11.754;2022-11-20T06:58:08;19.33;;;9.70;;
60478;SDS011;46321;48.398;11.754;2022-11-20T07:00:34;8.30;;;4.57;;
60478;SDS011;46321;48.398;11.754;2022-11-20T07:03:02;7.60;;;3.50;;
60478;SDS011;46321;48.398;11.754;2022-11-20T07:05:28;5.28;;;3.20;;
60478;SDS011;46321;48.398;11.754;2022-11-20T07:07:55;5.72;;;3.63;;
60478;SDS011;46321;48.398;11.754;2022-11-20T07:10:21;6.20;;;3.47;;
60478;SDS011;46321;48.398;11.754;2022-11-20T07:12:50;5.85;;;3.88;;
60478;SDS011;46321;48.398;11.754;2022-11-20T07:15:22;5.70;;;3.65;;
60478;SDS011;46321;48.398;11.754;2022-11-20T07:17:48;6.60;;;3.70;;
60478;SDS011;46321;48.398;11.754;2022-11-20T07:20:14;4.63;;;3.30;;
60478;SDS011;46321;48.398;11.754;2022-11-20T07:22:40;5.88;;;3.25;;
60478;SDS011;46321;48.398;11.754;2022-11-20T07:25:06;6.82;;;3.20;;
60478;SDS011;46321;48.398;11.754;2022-11-20T07:27:31;5.25;;;3.17;;
60478;SDS011;46321;48.398;11.754;2022-11-20T07:29:57;4.38;;;2.90;;
60478;SDS011;46321;48.398;11.754;2022-11-20T07:32:22;6.50;;;3.15;;
60478;SDS011;46321;48.398;11.754;2022-11-20T07:34:48;5.75;;;3.28;;
60478;SDS011;46321;48.398;11.754;2022-11-20T07:37:13;5.03;;;3.08;;
60478;SDS011;46321;48.398;11.754;2022-11-20T07:39:39;4.68;;;3.08;;
60478;SDS011;46321;48.398;11.754;2022-11-20T07:42:05;6.03;;;3.20;;
60478;SDS011;46321;48.398;11.754;2022-11-20T07:44:31;5.43;;;3.47;;
60478;SDS011;46321;48.398;11.754;2022-11-20T07:46:57;5.60;;;3.50;;
60478;SDS011;46321;48.398;11.754;2022-11-20T07:49:22;5.47;;;3.20;;
60478;SDS011;46321;48.398;11.754;2022-11-20T07:51:49;5.35;;;3.42;;
60478;SDS011;46321;48.398;11.754;2022-11-20T07:54:15;8.02;;;4.72;;
60478;SDS011;46321;48.398;11.754;2022-11-20T07:56:41;11.35;;;6.13;;
60478;SDS011;46321;48.398;11.754;2022-11-20T07:59:06;6.40;;;3.47;;
60478;SDS011;46321;48.398;11.754;2022-11-20T08:01:31;6.53;;;3.50;;
60478;SDS011;46321;48.398;11.754;2022-11-20T08:03:56;7.25;;;4.50;;
60478;SDS011;46321;48.398;11.754;2022-11-20T08:06:22;7.95;;;4.07;;
60478;SDS011;46321;48.398;11.754;2022-11-20T08:08:47;6.13;;;3.67;;
60478;SDS011;46321;48.398;11.754;2022-11-20T08:11:12;4.53;;;2.85;;
60478;SDS011;46321;48.398;11.754;2022-11-20T08:13:56;5.57;;;3.15;;
60478;SDS011;46321;48.398;11.754;2022-11-20T08:16:37;5.75;;;3.45;;
60478;SDS011;46321;48.398;11.754;2022-11-20T08:19:02;4.05;;;2.95;;
60478;SDS011;46321;48.398;11.754;2022-11-20T08:21:28;5.18;;;3.13;;
60478;SDS011;46321;48.398;11.754;2022-11-20T08:23:54;4.88;;;2.95;;
60478;SDS011;46321;48.398;11.754;2022-11-20T08:26:20;5.38;;;3.08;;
60478;SDS011;46321;48.398;11.754;2022-11-20T08:28:46;5.97;;;3.33;;
60478;SDS011;46321;48.398;11.754;2022-11-20T08:31:11;4.30;;;2.88;;
60478;SDS011;46321;48.398;11.754;2022-11-20T08:33:36;6.40;;;3.22;;
60478;SDS011;46321;48.398;11.754;2022-11-20T08:36:02;5.97;;;3.00;;
60478;SDS011;46321;48.398;11.754;2022-11-20T08:38:28;5.00;;;3.30;;
60478;SDS011;46321;48.398;11.754;2022-11-20T08:40:58;6.75;;;3.20;;
60478;SDS011;46321;48.398;11.754;2022-11-20T08:43:43;7.00;;;2.85;;
60478;SDS011;46321;48.398;11.754;2022-11-20T08:46:08;10.68;;;4.85;;
60478;SDS011;46321;48.398;11.754;2022-11-20T08:51:01;6.28;;;3.78;;
60478;SDS011;46321;48.398;11.754;2022-11-20T08:53:27;5.65;;;3.28;;
60478;SDS011;46321;48.398;11.754;2022-11-20T08:55:52;5.13;;;3.10;;
60478;SDS011;46321;48.398;11.754;2022-11-20T08:58:18;4.20;;;2.67;;
60478;SDS011;46321;48.398;11.754;2022-11-20T09:00:43;7.03;;;3.72;;
60478;SDS011;46321;48.398;11.754;2022-11-20T09:03:08;23.38;;;11.32;;
60478;SDS011;46321;48.398;11.754;2022-11-20T09:05:34;5.10;;;3.22;;
60478;SDS011;46321;48.398;11.754;2022-11-20T09:07:59;5.38;;;3.30;;
60478;SDS011;46321;48.398;11.754;2022-11-20T09:10:25;4.75;;;2.95;;
60478;SDS011;46321;48.398;11.754;2022-11-20T09:12:53;6.13;;;2.97;;
60478;SDS011;46321;48.398;11.754;2022-11-20T09:15:20;6.13;;;3.50;;
60478;SDS011;46321;48.398;11.754;2022-11-20T09:20:18;6.70;;;3.60;;
60478;SDS011;46321;48.398;11.754;2022-11-20T09:22:43;5.85;;;3.17;;
60478;SDS011;46321;48.398;11.754;2022-11-20T09:25:09;6.15;;;3.22;;
60478;SDS011;46321;48.398;11.754;2022-11-20T09:27:34;4.50;;;2.90;;
60478;SDS011;46321;48.398;11.754;2022-11-20T09:30:03;4.45;;;2.95;;
60478;SDS011;46321;48.398;11.754;2022-11-20T09:32:29;5.32;;;3.17;;
60478;SDS011;46321;48.398;11.754;2022-11-20T09:34:54;4.43;;;2.92;;
60478;SDS011;46321;48.398;11.754;2022-11-20T09:37:19;4.47;;;3.17;;
60478;SDS011;46321;48.398;11.754;2022-11-20T09:39:44;4.88;;;2.88;;
60478;SDS011;46321;48.398;11.754;2022-11-20T09:42:14;4.82;;;2.85;;
60478;SDS011;46321;48.398;11.754;2022-11-20T09:47:37;7.07;;;3.10;;
60478;SDS011;46321;48.398;11.754;2022-11-20T09:50:25;6.97;;;2.78;;
60478;SDS011;46321;48.398;11.754;2022-11-20T09:55:37;4.22;;;2.40;;
60478;SDS011;46321;48.398;11.754;2022-11-20T09:58:05;4.10;;;2.38;;
60478;SDS011;46321;48.398;11.754;2022-11-20T10:00:32;3.88;;;2.42;;
60478;SDS011;46321;48.398;11.754;2022-11-20T10:05:39;4.88;;;2.30;;
60478;SDS011;46321;48.398;11.754;2022-11-20T10:10:42;5.45;;;3.08;;
60478;SDS011;46321;48.398;11.754;2022-11-20T10:13:28;6.22;;;2.78;;
60478;SDS011;46321;48.398;11.754;2022-11-20T10:16:24;3.92;;;2.10;;
60478;SDS011;46321;48.398;11.754;2022-11-20T10:22:01;4.10;;;2.50;;
60478;SDS011;46321;48.398;11.754;2022-11-20T10:24:41;4.15;;;2.80;;
60478;SDS011;46321;48.398;11.754;2022-11-20T10:30:10;3.55;;;2.28;;
60478;SDS011;46321;48.398;11.754;2022-11-20T10:32:39;4.15;;;2.40;;
60478;SDS011;46321;48.398;11.754;2022-11-20T10:37:39;4.43;;;2.53;;
60478;SDS011;46321;48.398;11.754;2022-11-20T10:42:37;5.20;;;2.80;;
60478;SDS011;46321;48.398;11.754;2022-11-20T10:45:15;4.15;;;2.33;;
60478;SDS011;46321;48.398;11.754;2022-11-20T10:47:42;4.63;;;2.55;;
60478;SDS011;46321;48.398;11.754;2022-11-20T10:50:11;3.80;;;2.03;;
60478;SDS011;46321;48.398;11.754;2022-11-20T10:52:49;5.22;;;2.67;;
60478;SDS011;46321;48.398;11.754;2022-11-20T11:01:05;3.33;;;2.13;;
60478;SDS011;46321;48.398;11.754;2022-11-20T11:03:38;4.75;;;2.60;;
60478;SDS011;46321;48.398;11.754;2022-11-20T11:06:07;4.45;;;2.38;;
60478;SDS011;46321;48.398;11.754;2022-11-20T11:08:38;4.20;;;2.00;;
60478;SDS011;46321;48.398;11.754;2022-11-20T11:11:23;2.85;;;1.85;;
60478;SDS011;46321;48.398;11.754;2022-11-20T11:13:51;2.72;;;1.55;;
60478;SDS011;46321;48.398;11.754;2022-11-20T11:16:21;2.85;;;1.40;;
60478;SDS011;46321;48.398;11.754;2022-11-20T11:18:46;2.28;;;1.40;;
60478;SDS011;46321;48.398;11.754;2022-11-20T11:21:11;3.08;;;1.50;;
60478;SDS011;46321;48.398;11.754;2022-11-20T11:23:40;3.17;;;1.50;;
60478;SDS011;46321;48.398;11.754;2022-11-20T11:26:20;3.22;;;1.98;;
60478;SDS011;46321;48.398;11.754;2022-11-20T11:28:52;3.35;;;1.70;;
60478;SDS011;46321;48.398;11.754;2022-11-20T11:31:29;3.83;;;1.73;;
60478;SDS011;46321;48.398;11.754;2022-11-20T11:34:30;2.20;;;1.65;;
60478;SDS011;46321;48.398;11.754;2022-11-20T11:36:52;2.10;;;1.42;;
60478;SDS011;46321;48.398;11.754;2022-11-20T11:39:21;3.67;;;1.33;;
60478;SDS011;46321;48.398;11.754;2022-11-20T11:41:47;2.50;;;1.52;;
60478;SDS011;46321;48.398;11.754;2022-11-20T11:44:18;2.80;;;1.50;;
60478;SDS011;46321;48.398;11.754;2022-11-20T11:47:04;2.15;;;1.40;;
60478;SDS011;46321;48.398;11.754;2022-11-20T11:49:34;1.95;;;1.45;;
60478;SDS011;46321;48.398;11.754;2022-11-20T11:52:21;2.03;;;1.50;;
60478;SDS011;46321;48.398;11.754;2022-11-20T11:54:51;5.15;;;1.45;;
60478;SDS011;46321;48.398;11.754;2022-11-20T11:57:23;1.65;;;1.40;;
60478;SDS011;46321;48.398;11.754;2022-11-20T12:00:00;3.55;;;2.30;;
60478;SDS011;46321;48.398;11.754;2022-11-20T12:02:32;3.83;;;1.48;;
60478;SDS011;46321;48.398;11.754;2022-11-20T12:07:39;2.80;;;1.40;;
60478;SDS011;46321;48.398;11.754;2022-11-20T12:10:21;2.63;;;1.60;;
60478;SDS011;46321;48.398;11.754;2022-11-20T12:12:51;2.30;;;1.48;;
60478;SDS011;46321;48.398;11.754;2022-11-20T12:15:23;1.98;;;1.40;;
60478;SDS011;46321;48.398;11.754;2022-11-20T12:17:53;1.83;;;1.30;;
60478;SDS011;46321;48.398;11.754;2022-11-20T12:20:20;1.80;;;1.20;;
60478;SDS011;46321;48.398;11.754;2022-11-20T12:22:53;2.90;;;1.85;;
60478;SDS011;46321;48.398;11.754;2022-11-20T12:25:27;1.27;;;1.00;;
60478;SDS011;46321;48.398;11.754;2022-11-20T12:28:06;3.95;;;1.40;;
60478;SDS011;46321;48.398;11.754;2022-11-20T12:38:47;1.38;;;1.10;;
60478;SDS011;46321;48.398;11.754;2022-11-20T12:55:32;3.38;;;1.30;;
60478;SDS011;46321;48.398;11.754;2022-11-20T13:00:39;2.10;;;1.25;;
60478;SDS011;46321;48.398;11.754;2022-11-20T13:08:36;2.30;;;1.33;;
60478;SDS011;46321;48.398;11.754;2022-11-20T13:13:58;3.15;;;1.92;;
60478;SDS011;46321;48.398;11.754;2022-11-20T13:16:29;2.33;;;1.50;;
60478;SDS011;46321;48.398;11.754;2022-11-20T13:18:56;3.42;;;1.38;;
60478;SDS011;46321;48.398;11.754;2022-11-20T13:21:41;5.55;;;1.40;;
60478;SDS011;46321;48.398;11.754;2022-11-20T13:24:30;2.63;;;1.60;;
60478;SDS011;46321;48.398;11.754;2022-11-20T13:29:37;1.40;;;1.20;;
60478;SDS011;46321;48.398;11.754;2022-11-20T13:32:18;3.38;;;1.45;;
60478;SDS011;46321;48.398;11.754;2022-11-20T13:34:53;3.35;;;1.67;;
60478;SDS011;46321;48.398;11.754;2022-11-20T13:37:35;2.13;;;1.40;;
60478;SDS011;46321;48.398;11.754;2022-11-20T13:42:45;2.55;;;1.40;;
60478;SDS011;46321;48.398;11.754;2022-11-20T13:47:51;2.17;;;1.50;;
60478;SDS011;46321;48.398;11.754;2022-11-20T13:50:17;1.98;;;1.35;;
60478;SDS011;46321;48.398;11.754;2022-11-20T13:52:47;2.40;;;1.50;;
60478;SDS011;46321;48.398;11.754;2022-11-20T14:00:25;2.55;;;1.70;;
60478;SDS011;46321;48.398;11.754;2022-11-20T14:05:31;2.53;;;1.60;;
60478;SDS011;46321;48.398;11.754;2022-11-20T14:08:00;3.63;;;1.55;;
60478;SDS011;46321;48.398;11.754;2022-11-20T14:10:29;2.40;;;1.75;;
60478;SDS011;46321;48.398;11.754;2022-11-20T14:12:55;5.65;;;2.60;;
60478;SDS011;46321;48.398;11.754;2022-11-20T14:15:30;3.33;;;1.98;;
60478;SDS011;46321;48.398;11.754;2022-11-20T14:17:58;2.38;;;1.70;;
60478;SDS011;46321;48.398;11.754;2022-11-20T14:20:25;2.53;;;1.75;;
60478;SDS011;46321;48.398;11.754;2022-11-20T14:22:53;2.47;;;1.75;;
60478;SDS011;46321;48.398;11.754;2022-11-20T14:27:50;2.83;;;1.58;;
60478;SDS011;46321;48.398;11.754;2022-11-20T14:30:18;2.33;;;1.60;;
60478;SDS011;46321;48.398;11.754;2022-11-20T14:32:53;2.28;;;1.50;;
60478;SDS011;46321;48.398;11.754;2022-11-20T14:35:23;2.05;;;1.23;;
60478;SDS011;46321;48.398;11.754;2022-11-20T14:37:52;1.58;;;1.10;;
60478;SDS011;46321;48.398;11.754;2022-11-20T14:40:23;2.47;;;1.55;;
60478;SDS011;46321;48.398;11.754;2022-11-20T14:42:50;3.38;;;1.25;;
60478;SDS011;46321;48.398;11.754;2022-11-20T14:45:16;1.83;;;1.23;;
60478;SDS011;46321;48.398;11.754;2022-11-20T14:47:41;3.30;;;1.60;;
60478;SDS011;46321;48.398;11.754;2022-11-20T14:50:12;2.92;;;1.30;;
60478;SDS011;46321;48.398;11.754;2022-11-20T14:52:55;2.10;;;1.35;;
60478;SDS011;46321;48.398;11.754;2022-11-20T14:55:29;3.35;;;1.40;;
60478;SDS011;46321;48.398;11.754;2022-11-20T14:57:57;2.10;;;1.35;;
60478;SDS011;46321;48.398;11.754;2022-11-20T15:00:24;2.13;;;1.40;;
60478;SDS011;46321;48.398;11.754;2022-11-20T15:02:50;2.47;;;1.80;;
60478;SDS011;46321;48.398;11.754;2022-11-20T15:05:17;2.22;;;1.67;;
60478;SDS011;46321;48.398;11.754;2022-11-20T15:07:45;2.33;;;1.60;;
60478;SDS011;46321;48.398;11.754;2022-11-20T15:10:18;2.13;;;1.58;;
60478;SDS011;46321;48.398;11.754;2022-11-20T15:12:49;2.55;;;1.55;;
60478;SDS011;46321;48.398;11.754;2022-11-20T15:15:19;1.98;;;1.65;;
60478;SDS011;46321;48.398;11.754;2022-11-20T15:17:50;2.42;;;1.75;;
60478;SDS011;46321;48.398;11.754;2022-11-20T15:20:16;4.50;;;2.20;;
60478;SDS011;46321;48.398;11.754;2022-11-20T15:22:42;3.40;;;2.05;;
60478;SDS011;46321;48.398;11.754;2022-11-20T15:25:11;2.75;;;1.95;;
60478;SDS011;46321;48.398;11.754;2022-11-20T15:27:38;2.80;;;1.80;;
60478;SDS011;46321;48.398;11.754;2022-11-20T15:30:09;3.83;;;1.83;;
60478;SDS011;46321;48.398;11.754;2022-11-20T15:32:39;2.33;;;1.60;;
60478;SDS011;46321;48.398;11.754;2022-11-20T15:35:04;2.30;;;1.73;;
60478;SDS011;46321;48.398;11.754;2022-11-20T15:37:30;2.92;;;1.83;;
60478;SDS011;46321;48.398;11.754;2022-11-20T15:39:55;3.13;;;1.80;;
60478;SDS011;46321;48.398;11.754;2022-11-20T15:42:20;3.58;;;1.55;;
60478;SDS011;46321;48.398;11.754;2022-11-20T15:44:46;3.38;;;2.00;;
60478;SDS011;46321;48.398;11.754;2022-11-20T15:47:11;2.85;;;1.88;;
60478;SDS011;46321;48.398;11.754;2022-11-20T15:49:36;3.35;;;1.67;;
60478;SDS011;46321;48.398;11.754;2022-11-20T15:52:01;3.25;;;2.10;;
60478;SDS011;46321;48.398;11.754;2022-11-20T15:54:27;2.33;;;1.83;;
60478;SDS011;46321;48.398;11.754;2022-11-20T15:56:52;2.70;;;1.88;;
60478;SDS011;46321;48.398;11.754;2022-11-20T15:59:18;2.67;;;1.80;;
60478;SDS011;46321;48.398;11.754;2022-11-20T16:01:43;2.25;;;1.65;;
60478;SDS011;46321;48.398;11.754;2022-11-20T16:04:12;3.05;;;1.90;;
60478;SDS011;46321;48.398;11.754;2022-11-20T16:06:39;3.15;;;2.05;;
60478;SDS011;46321;48.398;11.754;2022-11-20T16:09:04;4.15;;;1.95;;
60478;SDS011;46321;48.398;11.754;2022-11-20T16:11:29;4.65;;;2.50;;
60478;SDS011;46321;48.398;11.754;2022-11-20T16:13:55;3.40;;;2.33;;
60478;SDS011;46321;48.398;11.754;2022-11-20T16:19:05;5.93;;;2.60;;
60478;SDS011;46321;48.398;11.754;2022-11-20T16:21:31;4.07;;;2.33;;
60478;SDS011;46321;48.398;11.754;2022-11-20T16:23:57;4.65;;;2.20;;
60478;SDS011;46321;48.398;11.754;2022-11-20T16:26:26;3.45;;;2.10;;
60478;SDS011;46321;48.398;11.754;2022-11-20T16:28:51;3.40;;;1.98;;
60478;SDS011;46321;48.398;11.754;2022-11-20T16:31:17;2.88;;;1.75;;